sensor_id;sensor_type;location;lat;lon;timestamp;temperature;humidity
52979;DHT22;63430;53.186;6.598;2024-03-08T00:03:31;2.00;99.90
52979;DHT22;63430;53.186;6.598;2024-03-08T00:08:35;2.00;99.90
52979;DHT22;63430;53.186;6.598;2024-03-08T00:13:37;1.90;99.90
52979;DHT22;63430;53.186;6.598;2024-03-08T00:18:43;1.90;99.90
52979;DHT22;63430;53.186;6.598;2024-03-08T00:23:46;1.90;99.90
52979;DHT22;63430;53.186;6.598;2024-03-08T00:28:49;1.90;99.90
52979;DHT22;63430;53.186;6.598;2024-03-08T00:33:54;1.80;99.90
52979;DHT22;63430;53.186;6.598;2024-03-08T00:38:57;1.80;99.90
52979;DHT22;63430;53.186;6.598;2024-03-08T00:44:02;1.70;99.90
52979;DHT22;63430;53.186;6.598;2024-03-08T00:49:09;1.70;99.90
52979;DHT22;63430;53.186;6.598;2024-03-08T00:54:12;1.60;99.90
52979;DHT22;63430;53.186;6.598;2024-03-08T00:59:15;1.60;99.90
52979;DHT22;63430;53.186;6.598;2024-03-08T01:04:20;1.50;99.90
52979;DHT22;63430;53.186;6.598;2024-03-08T01:09:24;1.40;99.90
52979;DHT22;63430;53.186;6.598;2024-03-08T01:14:27;1.50;99.90
52979;DHT22;63430;53.186;6.598;2024-03-08T01:19:33;1.40;99.90
52979;DHT22;63430;53.186;6.598;2024-03-08T01:24:36;1.30;99.90
52979;DHT22;63430;53.186;6.598;2024-03-08T01:29:39;1.20;99.90
52979;DHT22;63430;53.186;6.598;2024-03-08T01:34:44;1.20;99.90
52979;DHT22;63430;53.186;6.598;2024-03-08T01:39:47;1.10;99.90
52979;DHT22;63430;53.186;6.598;2024-03-08T01:44:51;1.00;99.90
52979;DHT22;63430;53.186;6.598;2024-03-08T01:49:56;0.90;99.90
52979;DHT22;63430;53.186;6.598;2024-03-08T01:54:59;0.90;99.90
52979;DHT22;63430;53.186;6.598;2024-03-08T02:00:05;0.90;99.90
52979;DHT22;63430;53.186;6.598;2024-03-08T02:05:10;0.90;99.90
52979;DHT22;63430;53.186;6.598;2024-03-08T02:10:13;0.90;99.90
52979;DHT22;63430;53.186;6.598;2024-03-08T02:15:16;0.90;99.90
52979;DHT22;63430;53.186;6.598;2024-03-08T02:20:21;0.90;99.90
52979;DHT22;63430;53.186;6.598;2024-03-08T02:25:28;0.90;99.90
52979;DHT22;63430;53.186;6.598;2024-03-08T02:30:30;0.90;99.90
52979;DHT22;63430;53.186;6.598;2024-03-08T02:35:33;0.90;99.90
52979;DHT22;63430;53.186;6.598;2024-03-08T02:40:38;0.90;99.90
52979;DHT22;63430;53.186;6.598;2024-03-08T02:45:42;0.90;99.90
52979;DHT22;63430;53.186;6.598;2024-03-08T02:50:45;0.90;99.90
52979;DHT22;63430;53.186;6.598;2024-03-08T02:55:51;0.80;99.90
52979;DHT22;63430;53.186;6.598;2024-03-08T03:00:53;0.80;99.90
52979;DHT22;63430;53.186;6.598;2024-03-08T03:05:56;0.80;99.90
52979;DHT22;63430;53.186;6.598;2024-03-08T03:11:01;0.80;99.90
52979;DHT22;63430;53.186;6.598;2024-03-08T03:16:05;0.80;99.90
52979;DHT22;63430;53.186;6.598;2024-03-08T03:21:07;0.80;99.90
52979;DHT22;63430;53.186;6.598;2024-03-08T03:26:12;0.80;99.90
52979;DHT22;63430;53.186;6.598;2024-03-08T03:31:15;0.70;99.90
52979;DHT22;63430;53.186;6.598;2024-03-08T03:36:18;0.80;99.90
52979;DHT22;63430;53.186;6.598;2024-03-08T03:41:23;0.70;99.90
52979;DHT22;63430;53.186;6.598;2024-03-08T03:46:26;0.70;99.90
52979;DHT22;63430;53.186;6.598;2024-03-08T03:51:29;0.60;99.90
52979;DHT22;63430;53.186;6.598;2024-03-08T03:56:35;0.60;99.90
52979;DHT22;63430;53.186;6.598;2024-03-08T04:01:42;0.50;99.90
52979;DHT22;63430;53.186;6.598;2024-03-08T04:06:44;0.50;99.90
52979;DHT22;63430;53.186;6.598;2024-03-08T04:11:50;0.40;99.90
52979;DHT22;63430;53.186;6.598;2024-03-08T04:16:55;0.40;99.90
52979;DHT22;63430;53.186;6.598;2024-03-08T04:21:58;0.40;99.90
52979;DHT22;63430;53.186;6.598;2024-03-08T04:27:07;0.30;99.90
52979;DHT22;63430;53.186;6.598;2024-03-08T04:32:10;0.30;99.90
52979;DHT22;63430;53.186;6.598;2024-03-08T04:37:13;0.30;99.90
52979;DHT22;63430;53.186;6.598;2024-03-08T04:42:19;0.30;99.90
52979;DHT22;63430;53.186;6.598;2024-03-08T04:47:22;0.30;99.90
52979;DHT22;63430;53.186;6.598;2024-03-08T04:52:25;0.30;99.90
52979;DHT22;63430;53.186;6.598;2024-03-08T04:57:30;0.30;99.90
52979;DHT22;63430;53.186;6.598;2024-03-08T05:02:34;0.30;99.90
52979;DHT22;63430;53.186;6.598;2024-03-08T05:07:36;0.20;99.90
52979;DHT22;63430;53.186;6.598;2024-03-08T05:12:42;0.20;99.90
52979;DHT22;63430;53.186;6.598;2024-03-08T05:17:45;0.20;99.90
52979;DHT22;63430;53.186;6.598;2024-03-08T05:22:48;0.20;99.90
52979;DHT22;63430;53.186;6.598;2024-03-08T05:27:53;0.10;99.90
52979;DHT22;63430;53.186;6.598;2024-03-08T05:32:55;0.10;99.90
52979;DHT22;63430;53.186;6.598;2024-03-08T05:37:59;0.10;99.90
52979;DHT22;63430;53.186;6.598;2024-03-08T05:43:04;0.00;99.90
52979;DHT22;63430;53.186;6.598;2024-03-08T05:48:08;0.00;99.90
52979;DHT22;63430;53.186;6.598;2024-03-08T05:53:11;0.00;99.90
52979;DHT22;63430;53.186;6.598;2024-03-08T05:58:16;0.00;99.90
52979;DHT22;63430;53.186;6.598;2024-03-08T06:03:19;-0.10;99.90
52979;DHT22;63430;53.186;6.598;2024-03-08T06:08:24;-0.10;99.90
52979;DHT22;63430;53.186;6.598;2024-03-08T06:13:34;0.00;99.90
52979;DHT22;63430;53.186;6.598;2024-03-08T06:18:37;0.00;99.90
52979;DHT22;63430;53.186;6.598;2024-03-08T06:23:42;-0.10;99.90
52979;DHT22;63430;53.186;6.598;2024-03-08T06:28:47;0.00;99.90
52979;DHT22;63430;53.186;6.598;2024-03-08T06:33:49;0.00;99.90
52979;DHT22;63430;53.186;6.598;2024-03-08T06:38:53;0.10;99.90
52979;DHT22;63430;53.186;6.598;2024-03-08T06:43:58;0.10;99.90
52979;DHT22;63430;53.186;6.598;2024-03-08T06:49:02;0.20;99.90
52979;DHT22;63430;53.186;6.598;2024-03-08T06:54:06;0.30;99.90
52979;DHT22;63430;53.186;6.598;2024-03-08T06:59:14;0.40;99.90
52979;DHT22;63430;53.186;6.598;2024-03-08T07:04:17;0.40;99.90
52979;DHT22;63430;53.186;6.598;2024-03-08T07:09:22;0.50;99.90
52979;DHT22;63430;53.186;6.598;2024-03-08T07:14:28;0.60;99.90
52979;DHT22;63430;53.186;6.598;2024-03-08T07:19:31;0.70;99.90
52979;DHT22;63430;53.186;6.598;2024-03-08T07:24:34;0.80;99.90
52979;DHT22;63430;53.186;6.598;2024-03-08T07:29:42;0.90;99.90
52979;DHT22;63430;53.186;6.598;2024-03-08T07:34:44;1.00;99.90
52979;DHT22;63430;53.186;6.598;2024-03-08T07:39:47;1.10;99.90
52979;DHT22;63430;53.186;6.598;2024-03-08T07:44:52;1.20;99.90
52979;DHT22;63430;53.186;6.598;2024-03-08T07:49:56;1.30;99.90
52979;DHT22;63430;53.186;6.598;2024-03-08T07:55:01;1.40;99.90
52979;DHT22;63430;53.186;6.598;2024-03-08T08:00:07;1.50;99.90
52979;DHT22;63430;53.186;6.598;2024-03-08T08:05:10;1.70;99.90
52979;DHT22;63430;53.186;6.598;2024-03-08T08:10:13;1.80;99.90
52979;DHT22;63430;53.186;6.598;2024-03-08T08:15:27;1.90;99.90
52979;DHT22;63430;53.186;6.598;2024-03-08T08:20:30;2.10;99.90
52979;DHT22;63430;53.186;6.598;2024-03-08T08:25:33;2.20;99.90
52979;DHT22;63430;53.186;6.598;2024-03-08T08:30:40;2.40;99.90
52979;DHT22;63430;53.186;6.598;2024-03-08T08:35:42;2.50;99.90
52979;DHT22;63430;53.186;6.598;2024-03-08T08:40:45;2.60;99.90
52979;DHT22;63430;53.186;6.598;2024-03-08T08:45:52;2.70;99.90
52979;DHT22;63430;53.186;6.598;2024-03-08T08:50:58;2.80;99.90
52979;DHT22;63430;53.186;6.598;2024-03-08T08:56:01;3.00;99.90
52979;DHT22;63430;53.186;6.598;2024-03-08T09:01:06;3.20;99.90
52979;DHT22;63430;53.186;6.598;2024-03-08T09:06:09;3.30;99.90
52979;DHT22;63430;53.186;6.598;2024-03-08T09:11:12;3.40;99.90
52979;DHT22;63430;53.186;6.598;2024-03-08T09:16:17;3.50;99.90
52979;DHT22;63430;53.186;6.598;2024-03-08T09:21:20;3.70;99.90
52979;DHT22;63430;53.186;6.598;2024-03-08T09:26:25;3.80;99.90
52979;DHT22;63430;53.186;6.598;2024-03-08T09:31:34;3.80;99.90
52979;DHT22;63430;53.186;6.598;2024-03-08T09:36:36;3.90;99.90
52979;DHT22;63430;53.186;6.598;2024-03-08T09:41:39;3.90;99.90
52979;DHT22;63430;53.186;6.598;2024-03-08T09:46:45;4.00;99.90
52979;DHT22;63430;53.186;6.598;2024-03-08T09:51:51;4.10;99.90
52979;DHT22;63430;53.186;6.598;2024-03-08T09:56:55;4.30;99.90
52979;DHT22;63430;53.186;6.598;2024-03-08T10:02:00;4.30;99.90
52979;DHT22;63430;53.186;6.598;2024-03-08T10:07:05;4.50;99.90
52979;DHT22;63430;53.186;6.598;2024-03-08T10:12:09;4.60;99.90
52979;DHT22;63430;53.186;6.598;2024-03-08T10:17:14;4.60;99.90
52979;DHT22;63430;53.186;6.598;2024-03-08T10:22:18;4.70;99.90
52979;DHT22;63430;53.186;6.598;2024-03-08T10:27:21;4.80;99.90
52979;DHT22;63430;53.186;6.598;2024-03-08T10:32:26;4.90;99.90
52979;DHT22;63430;53.186;6.598;2024-03-08T10:37:29;5.00;99.90
52979;DHT22;63430;53.186;6.598;2024-03-08T10:42:33;5.10;99.90
52979;DHT22;63430;53.186;6.598;2024-03-08T10:47:45;5.30;99.90
52979;DHT22;63430;53.186;6.598;2024-03-08T10:52:53;5.40;99.90
52979;DHT22;63430;53.186;6.598;2024-03-08T10:57:58;5.60;99.90
52979;DHT22;63430;53.186;6.598;2024-03-08T11:03:03;5.70;99.90
52979;DHT22;63430;53.186;6.598;2024-03-08T11:08:17;5.90;99.90
52979;DHT22;63430;53.186;6.598;2024-03-08T11:13:35;6.00;99.90
52979;DHT22;63430;53.186;6.598;2024-03-08T11:18:41;6.10;99.90
52979;DHT22;63430;53.186;6.598;2024-03-08T11:23:59;6.30;99.90
52979;DHT22;63430;53.186;6.598;2024-03-08T11:34:38;6.70;99.90
52979;DHT22;63430;53.186;6.598;2024-03-08T11:39:47;6.80;99.90
52979;DHT22;63430;53.186;6.598;2024-03-08T11:44:54;6.90;99.90
52979;DHT22;63430;53.186;6.598;2024-03-08T11:49:59;7.00;99.90
52979;DHT22;63430;53.186;6.598;2024-03-08T11:55:04;7.20;99.90
52979;DHT22;63430;53.186;6.598;2024-03-08T12:00:15;7.30;99.90
52979;DHT22;63430;53.186;6.598;2024-03-08T12:05:27;7.40;99.90
52979;DHT22;63430;53.186;6.598;2024-03-08T12:10:30;7.50;99.90
52979;DHT22;63430;53.186;6.598;2024-03-08T12:15:33;7.50;99.70
52979;DHT22;63430;53.186;6.598;2024-03-08T12:20:39;7.60;98.20
52979;DHT22;63430;53.186;6.598;2024-03-08T12:25:44;7.70;96.60
52979;DHT22;63430;53.186;6.598;2024-03-08T12:30:47;7.70;97.30
52979;DHT22;63430;53.186;6.598;2024-03-08T12:35:54;7.80;97.40
52979;DHT22;63430;53.186;6.598;2024-03-08T12:40:58;7.90;97.10
52979;DHT22;63430;53.186;6.598;2024-03-08T12:46:02;8.00;96.50
52979;DHT22;63430;53.186;6.598;2024-03-08T12:51:08;8.10;95.40
52979;DHT22;63430;53.186;6.598;2024-03-08T12:56:12;8.20;94.30
52979;DHT22;63430;53.186;6.598;2024-03-08T13:01:15;8.30;93.80
52979;DHT22;63430;53.186;6.598;2024-03-08T13:06:20;8.40;94.00
52979;DHT22;63430;53.186;6.598;2024-03-08T13:11:27;8.50;94.20
52979;DHT22;63430;53.186;6.598;2024-03-08T13:16:33;8.60;92.50
52979;DHT22;63430;53.186;6.598;2024-03-08T13:21:40;8.70;91.10
52979;DHT22;63430;53.186;6.598;2024-03-08T13:26:43;8.70;91.10
52979;DHT22;63430;53.186;6.598;2024-03-08T13:31:46;8.80;91.00
52979;DHT22;63430;53.186;6.598;2024-03-08T13:36:57;8.80;86.90
52979;DHT22;63430;53.186;6.598;2024-03-08T13:42:03;8.90;88.60
52979;DHT22;63430;53.186;6.598;2024-03-08T13:47:12;8.90;87.50
52979;DHT22;63430;53.186;6.598;2024-03-08T13:52:18;8.90;86.70
52979;DHT22;63430;53.186;6.598;2024-03-08T13:57:22;9.00;86.20
52979;DHT22;63430;53.186;6.598;2024-03-08T14:02:25;9.00;85.90
52979;DHT22;63430;53.186;6.598;2024-03-08T14:07:36;9.00;85.30
52979;DHT22;63430;53.186;6.598;2024-03-08T14:12:39;9.00;83.00
52979;DHT22;63430;53.186;6.598;2024-03-08T14:17:41;9.00;80.50
52979;DHT22;63430;53.186;6.598;2024-03-08T14:22:47;8.90;77.90
52979;DHT22;63430;53.186;6.598;2024-03-08T14:27:50;8.90;80.80
52979;DHT22;63430;53.186;6.598;2024-03-08T14:32:56;9.00;79.80
52979;DHT22;63430;53.186;6.598;2024-03-08T14:38:01;9.00;80.80
52979;DHT22;63430;53.186;6.598;2024-03-08T14:43:04;8.90;81.00
52979;DHT22;63430;53.186;6.598;2024-03-08T14:48:08;8.90;79.10
52979;DHT22;63430;53.186;6.598;2024-03-08T14:53:13;8.90;78.90
52979;DHT22;63430;53.186;6.598;2024-03-08T14:58:19;8.90;80.30
52979;DHT22;63430;53.186;6.598;2024-03-08T15:03:23;8.90;79.70
52979;DHT22;63430;53.186;6.598;2024-03-08T15:08:31;8.80;79.70
52979;DHT22;63430;53.186;6.598;2024-03-08T15:13:35;8.80;78.90
52979;DHT22;63430;53.186;6.598;2024-03-08T15:18:44;8.70;78.30
52979;DHT22;63430;53.186;6.598;2024-03-08T15:24:02;8.70;77.90
52979;DHT22;63430;53.186;6.598;2024-03-08T15:29:05;8.60;75.40
52979;DHT22;63430;53.186;6.598;2024-03-08T15:34:08;8.60;78.10
52979;DHT22;63430;53.186;6.598;2024-03-08T15:39:13;8.50;78.30
52979;DHT22;63430;53.186;6.598;2024-03-08T15:44:16;8.40;78.90
52979;DHT22;63430;53.186;6.598;2024-03-08T15:49:19;8.40;79.50
52979;DHT22;63430;53.186;6.598;2024-03-08T15:54:24;8.30;78.60
52979;DHT22;63430;53.186;6.598;2024-03-08T15:59:29;8.30;78.80
52979;DHT22;63430;53.186;6.598;2024-03-08T16:04:36;8.20;78.70
52979;DHT22;63430;53.186;6.598;2024-03-08T16:09:42;8.10;79.40
52979;DHT22;63430;53.186;6.598;2024-03-08T16:14:45;8.00;79.40
52979;DHT22;63430;53.186;6.598;2024-03-08T16:19:48;8.00;80.20
52979;DHT22;63430;53.186;6.598;2024-03-08T16:24:55;7.90;80.20
52979;DHT22;63430;53.186;6.598;2024-03-08T16:29:58;7.80;81.00
52979;DHT22;63430;53.186;6.598;2024-03-08T16:35:01;7.70;81.60
52979;DHT22;63430;53.186;6.598;2024-03-08T16:40:07;7.60;82.10
52979;DHT22;63430;53.186;6.598;2024-03-08T16:45:18;7.60;81.10
52979;DHT22;63430;53.186;6.598;2024-03-08T16:50:21;7.50;82.30
52979;DHT22;63430;53.186;6.598;2024-03-08T16:55:28;7.40;83.50
52979;DHT22;63430;53.186;6.598;2024-03-08T17:00:33;7.30;84.50
52979;DHT22;63430;53.186;6.598;2024-03-08T17:05:35;7.20;85.10
52979;DHT22;63430;53.186;6.598;2024-03-08T17:10:43;7.10;86.10
52979;DHT22;63430;53.186;6.598;2024-03-08T17:15:46;7.00;87.30
52979;DHT22;63430;53.186;6.598;2024-03-08T17:20:51;6.90;88.50
52979;DHT22;63430;53.186;6.598;2024-03-08T17:25:56;6.80;90.00
52979;DHT22;63430;53.186;6.598;2024-03-08T17:31:00;6.60;90.90
52979;DHT22;63430;53.186;6.598;2024-03-08T17:36:03;6.50;91.90
52979;DHT22;63430;53.186;6.598;2024-03-08T17:41:12;6.40;92.90
52979;DHT22;63430;53.186;6.598;2024-03-08T17:46:15;6.30;93.90
52979;DHT22;63430;53.186;6.598;2024-03-08T17:51:19;6.20;94.80
52979;DHT22;63430;53.186;6.598;2024-03-08T17:56:25;6.20;95.70
52979;DHT22;63430;53.186;6.598;2024-03-08T18:01:29;6.10;96.20
52979;DHT22;63430;53.186;6.598;2024-03-08T18:06:35;6.00;97.50
52979;DHT22;63430;53.186;6.598;2024-03-08T18:11:45;6.00;97.90
52979;DHT22;63430;53.186;6.598;2024-03-08T18:16:48;5.80;99.10
52979;DHT22;63430;53.186;6.598;2024-03-08T18:21:52;5.70;99.90
52979;DHT22;63430;53.186;6.598;2024-03-08T18:26:57;5.60;99.90
52979;DHT22;63430;53.186;6.598;2024-03-08T18:32:00;5.40;99.90
52979;DHT22;63430;53.186;6.598;2024-03-08T18:37:03;5.30;99.90
52979;DHT22;63430;53.186;6.598;2024-03-08T18:42:09;5.20;99.90
52979;DHT22;63430;53.186;6.598;2024-03-08T18:47:14;5.20;99.90
52979;DHT22;63430;53.186;6.598;2024-03-08T18:52:16;5.10;99.90
52979;DHT22;63430;53.186;6.598;2024-03-08T18:57:23;5.10;99.90
52979;DHT22;63430;53.186;6.598;2024-03-08T19:02:30;5.00;99.90
52979;DHT22;63430;53.186;6.598;2024-03-08T19:07:35;4.90;99.90
52979;DHT22;63430;53.186;6.598;2024-03-08T19:12:41;4.80;99.90
52979;DHT22;63430;53.186;6.598;2024-03-08T19:17:46;4.80;99.90
52979;DHT22;63430;53.186;6.598;2024-03-08T19:22:54;4.70;99.90
52979;DHT22;63430;53.186;6.598;2024-03-08T19:28:00;4.60;99.90
52979;DHT22;63430;53.186;6.598;2024-03-08T19:33:05;4.60;99.90
52979;DHT22;63430;53.186;6.598;2024-03-08T19:38:16;4.50;99.90
52979;DHT22;63430;53.186;6.598;2024-03-08T19:43:21;4.40;99.90
52979;DHT22;63430;53.186;6.598;2024-03-08T19:48:29;4.40;99.90
52979;DHT22;63430;53.186;6.598;2024-03-08T19:53:32;4.20;99.90
52979;DHT22;63430;53.186;6.598;2024-03-08T19:58:38;4.10;99.90
52979;DHT22;63430;53.186;6.598;2024-03-08T20:03:41;4.00;99.90
52979;DHT22;63430;53.186;6.598;2024-03-08T20:08:44;4.00;99.90
52979;DHT22;63430;53.186;6.598;2024-03-08T20:13:50;4.00;99.90
52979;DHT22;63430;53.186;6.598;2024-03-08T20:18:53;4.10;99.90
52979;DHT22;63430;53.186;6.598;2024-03-08T20:23:55;4.10;99.90
52979;DHT22;63430;53.186;6.598;2024-03-08T20:29:01;4.10;99.90
52979;DHT22;63430;53.186;6.598;2024-03-08T20:34:03;4.10;99.90
52979;DHT22;63430;53.186;6.598;2024-03-08T20:39:06;4.30;99.90
52979;DHT22;63430;53.186;6.598;2024-03-08T20:44:13;4.40;99.90
52979;DHT22;63430;53.186;6.598;2024-03-08T20:49:18;4.50;99.90
52979;DHT22;63430;53.186;6.598;2024-03-08T20:54:22;4.60;99.90
52979;DHT22;63430;53.186;6.598;2024-03-08T20:59:27;4.70;99.90
52979;DHT22;63430;53.186;6.598;2024-03-08T21:04:35;4.70;99.90
52979;DHT22;63430;53.186;6.598;2024-03-08T21:09:38;4.80;99.90
52979;DHT22;63430;53.186;6.598;2024-03-08T21:14:43;4.80;99.90
52979;DHT22;63430;53.186;6.598;2024-03-08T21:19:45;4.80;99.90
52979;DHT22;63430;53.186;6.598;2024-03-08T21:24:48;4.80;99.90
52979;DHT22;63430;53.186;6.598;2024-03-08T21:29:54;4.80;99.90
52979;DHT22;63430;53.186;6.598;2024-03-08T21:34:58;4.80;99.90
52979;DHT22;63430;53.186;6.598;2024-03-08T21:40:01;4.70;99.90
52979;DHT22;63430;53.186;6.598;2024-03-08T21:45:11;4.70;99.90
52979;DHT22;63430;53.186;6.598;2024-03-08T21:50:14;4.60;99.90
52979;DHT22;63430;53.186;6.598;2024-03-08T21:55:17;4.60;99.90
52979;DHT22;63430;53.186;6.598;2024-03-08T22:00:23;4.60;99.90
52979;DHT22;63430;53.186;6.598;2024-03-08T22:05:27;4.50;99.90
52979;DHT22;63430;53.186;6.598;2024-03-08T22:10:30;4.50;99.90
52979;DHT22;63430;53.186;6.598;2024-03-08T22:15:35;4.50;99.90
52979;DHT22;63430;53.186;6.598;2024-03-08T22:20:38;4.40;99.90
52979;DHT22;63430;53.186;6.598;2024-03-08T22:25:40;4.40;99.90
52979;DHT22;63430;53.186;6.598;2024-03-08T22:30:47;4.30;99.90
52979;DHT22;63430;53.186;6.598;2024-03-08T22:35:50;4.30;99.90
52979;DHT22;63430;53.186;6.598;2024-03-08T22:40:53;4.40;99.90
52979;DHT22;63430;53.186;6.598;2024-03-08T22:45:58;4.30;99.90
52979;DHT22;63430;53.186;6.598;2024-03-08T22:51:01;4.30;99.90
52979;DHT22;63430;53.186;6.598;2024-03-08T22:56:06;4.30;99.90
52979;DHT22;63430;53.186;6.598;2024-03-08T23:01:11;4.30;99.90
52979;DHT22;63430;53.186;6.598;2024-03-08T23:06:21;4.20;99.90
52979;DHT22;63430;53.186;6.598;2024-03-08T23:11:24;4.20;99.90
52979;DHT22;63430;53.186;6.598;2024-03-08T23:16:31;4.20;99.90
52979;DHT22;63430;53.186;6.598;2024-03-08T23:21:33;4.20;99.90
52979;DHT22;63430;53.186;6.598;2024-03-08T23:26:36;4.00;99.90
52979;DHT22;63430;53.186;6.598;2024-03-08T23:31:41;4.00;99.90
52979;DHT22;63430;53.186;6.598;2024-03-08T23:36:47;4.00;99.90
52979;DHT22;63430;53.186;6.598;2024-03-08T23:41:51;3.90;99.90
52979;DHT22;63430;53.186;6.598;2024-03-08T23:46:56;3.90;99.90
52979;DHT22;63430;53.186;6.598;2024-03-08T23:51:59;3.80;99.90
52979;DHT22;63430;53.186;6.598;2024-03-08T23:57:04;3.80;99.90
